DWD Radarbild

   
[Quelle: ADDS]
METAR
EDLP 221150Z 24006KT 9999 OVC020 12/09 Q1025 =
EDLP 221100Z 2212/2312 24005KT 9999 BKN030 BECMG 2213/2216 VRB03KT BECMG 2222/2301 13006KT PROB30 TEMPO 2304/2309 4000 BR
TAF
EDLP 221100Z 2212/2312 24005KT 9999 BKN030 BECMG 2213/2216 VRB03KT BECMG 2222/2301 13006KT PROB30 TEMPO 2304/2309 4000 BR =
   
   

Meine WettercamWettercam aus Bielefeld Senne - Blickrichtung Süd-Ost

   
Moon phase
Phase:
Abnehmend

Mondphase:
39%

Alter:
23 Tage

Entfernung:
228,108 Km

Zeit:
14:21:55

Datum:
22-10-2019

   
<<  Okt 2019  >>
 Mo  Di  Mi  Do  Fr  Sa  So 
   1  2  3  4  5  6
  7  8  910111213
14151617181920
21222324252627
28293031